createdAt,value
2022-12-24T10:13:38.578Z,7.9
2022-12-24T10:18:44.427Z,8.2
2022-12-24T10:23:50.983Z,8.2
2022-12-24T10:28:57.545Z,8.2
2022-12-24T10:34:04.258Z,9.1
2022-12-24T10:39:10.698Z,9.5
2022-12-24T10:44:17.283Z,9
2022-12-24T10:49:23.847Z,9.8
2022-12-24T10:54:30.504Z,9.1
2022-12-24T10:59:36.990Z,8.8
2022-12-24T11:04:43.561Z,8.6
2022-12-24T11:09:50.192Z,8.6
2022-12-24T11:14:56.783Z,8.5
2022-12-24T11:20:03.273Z,8.5
2022-12-24T11:25:09.831Z,8.7
2022-12-24T11:30:16.475Z,8.6
2022-12-24T11:35:22.975Z,8.6
2022-12-24T11:40:29.551Z,8.4
2022-12-24T11:45:36.146Z,8.5
2022-12-24T11:50:42.695Z,8.5
2022-12-24T11:55:49.257Z,8.6
2022-12-24T12:00:55.872Z,8.4
2022-12-24T12:06:02.420Z,8.3
2022-12-24T12:11:08.993Z,8.5
2022-12-24T12:16:15.559Z,8.6
2022-12-24T12:21:22.130Z,8.5
2022-12-24T12:26:28.711Z,8.5
2022-12-24T12:31:35.301Z,8.7
2022-12-24T12:36:41.900Z,8.6
2022-12-24T12:41:48.558Z,8.6
2022-12-24T12:46:54.988Z,8.7
2022-12-24T12:52:01.558Z,8.6
2022-12-24T12:57:08.253Z,8.6
2022-12-24T13:02:14.702Z,8.6
2022-12-24T13:07:21.304Z,8.6
2022-12-24T13:12:27.847Z,8.7
2022-12-24T13:17:34.429Z,8.7
2022-12-24T13:22:40.970Z,8.6
2022-12-24T13:27:47.590Z,8.6
2022-12-24T13:32:54.142Z,8.6
2022-12-24T13:38:00.745Z,8.5
2022-12-24T13:43:07.297Z,8.6
2022-12-24T13:48:13.915Z,8.5
2022-12-24T13:53:20.427Z,8.5
2022-12-24T13:58:26.975Z,8.4
2022-12-24T14:03:33.577Z,8.5
2022-12-24T14:08:40.185Z,8.4
2022-12-24T14:13:46.759Z,8.4
2022-12-24T14:18:53.305Z,8.2
2022-12-24T14:23:59.846Z,8.3
2022-12-24T14:29:06.416Z,8.2
2022-12-24T14:34:13.001Z,8.2
2022-12-24T14:39:19.611Z,8.1
2022-12-24T14:44:26.190Z,8
2022-12-24T14:49:32.697Z,7.8
2022-12-24T14:54:39.286Z,7.8
2022-12-24T14:59:45.876Z,7.7
2022-12-24T15:04:52.413Z,7.7
2022-12-24T15:09:58.970Z,7.7
2022-12-24T15:15:05.567Z,7.7
2022-12-24T15:20:12.177Z,7.6
2022-12-24T15:25:18.701Z,7.6
2022-12-24T15:30:25.429Z,7.6
2022-12-24T15:35:31.872Z,7.6
2022-12-24T15:40:38.476Z,7.5
2022-12-24T15:45:44.991Z,7.4
2022-12-24T15:50:51.607Z,7.4
2022-12-24T15:55:58.193Z,7.5
2022-12-24T16:01:04.759Z,7.4
2022-12-24T16:06:11.295Z,7.3
2022-12-24T16:11:17.828Z,7.3
2022-12-24T16:16:24.418Z,7.2
2022-12-24T16:21:31.112Z,7.3
2022-12-24T16:26:37.596Z,7.2
2022-12-24T16:31:44.156Z,7
2022-12-24T16:36:50.786Z,6.9
2022-12-24T16:47:03.830Z,6.8
2022-12-24T16:52:10.417Z,6.8
2022-12-24T16:57:16.982Z,6.8
2022-12-24T17:02:23.555Z,6.8
2022-12-24T17:07:30.114Z,6.8
2022-12-24T17:12:36.751Z,6.7
2022-12-24T17:17:43.305Z,6.7
2022-12-24T17:22:49.827Z,6.7
2022-12-24T17:27:56.419Z,6.7
2022-12-24T17:33:03.030Z,6.6
2022-12-24T17:38:09.545Z,6.6
2022-12-24T17:43:16.131Z,6.6
2022-12-24T17:48:22.697Z,6.6
2022-12-24T17:53:29.254Z,6.6
2022-12-24T17:58:35.903Z,6.5
2022-12-24T18:03:42.413Z,6.5
2022-12-24T18:08:49.027Z,6.5
2022-12-24T18:13:55.552Z,6.5
2022-12-24T18:19:02.156Z,6.5
2022-12-24T18:24:08.697Z,6.5
2022-12-24T18:29:15.342Z,6.4
2022-12-24T18:34:21.932Z,6.4
2022-12-24T18:39:28.430Z,6.6
2022-12-24T18:44:35.027Z,6.3
2022-12-24T18:49:41.582Z,6.1
2022-12-24T18:54:48.173Z,6.1
2022-12-24T18:59:54.763Z,5.9
2022-12-24T19:05:01.299Z,5.7
2022-12-24T19:10:07.859Z,5.4
2022-12-24T19:15:14.433Z,5.5
2022-12-24T19:20:20.974Z,5.4
2022-12-24T19:25:27.553Z,5.1
2022-12-24T19:30:34.132Z,4.6
2022-12-24T19:35:40.714Z,4.5
2022-12-24T19:40:47.283Z,4.4
2022-12-24T19:45:53.932Z,4.3
2022-12-24T19:51:00.408Z,3.9
2022-12-24T19:56:06.977Z,3.6
2022-12-24T20:01:13.556Z,3.5
2022-12-24T20:06:20.128Z,3.5
2022-12-24T20:11:26.902Z,3.7
2022-12-24T20:16:33.382Z,3.8
2022-12-24T20:21:39.837Z,3.7
2022-12-24T20:26:46.412Z,3.4
2022-12-24T20:31:53.130Z,3.3
2022-12-24T20:36:59.645Z,3.3
2022-12-24T20:42:06.145Z,3.3
2022-12-24T20:47:12.710Z,3.3
2022-12-24T20:52:19.276Z,3.2
2022-12-24T20:57:25.841Z,3.2
